createdAt,value
2022-11-15T00:00:33.195Z,6.34
2022-11-15T00:03:32.151Z,6.26
2022-11-15T00:06:30.929Z,6.34
2022-11-15T00:09:48.942Z,6.37
2022-11-15T00:12:49.940Z,6.32
2022-11-15T00:15:48.622Z,6.28
2022-11-15T00:19:06.879Z,6.24
2022-11-15T00:22:05.784Z,6.21
2022-11-15T00:25:07.836Z,6.16
2022-11-15T00:28:08.987Z,6.09
2022-11-15T00:31:11.504Z,6.06
2022-11-15T00:34:30.591Z,6.04
2022-11-15T00:37:29.635Z,6.03
2022-11-15T00:40:30.831Z,5.99
2022-11-15T00:43:29.646Z,6.00
2022-11-15T00:46:38.923Z,6.10
2022-11-15T00:49:37.039Z,6.02
2022-11-15T00:52:37.111Z,6.05
2022-11-15T00:55:35.073Z,6.10
2022-11-15T00:58:34.180Z,6.23
2022-11-15T01:01:34.145Z,6.27
2022-11-15T01:04:33.681Z,6.28
2022-11-15T01:07:32.865Z,6.36
2022-11-15T01:10:33.760Z,6.50
2022-11-15T01:13:35.882Z,6.73
2022-11-15T01:16:34.743Z,6.75
2022-11-15T01:19:52.708Z,6.81
2022-11-15T01:22:52.056Z,6.88
2022-11-15T01:25:52.788Z,6.90
2022-11-15T01:29:10.525Z,6.95
2022-11-15T01:32:11.736Z,7.03
2022-11-15T01:35:10.394Z,7.08
2022-11-15T01:38:11.159Z,7.16
2022-11-15T01:41:17.518Z,7.21
2022-11-15T01:44:48.963Z,7.25
2022-11-15T01:47:51.088Z,7.32
2022-11-15T01:50:50.726Z,7.41
2022-11-15T01:53:52.035Z,7.42
2022-11-15T01:56:53.223Z,7.50
2022-11-15T01:59:51.871Z,7.55
2022-11-15T02:02:52.841Z,7.59
2022-11-15T02:05:52.302Z,7.62
2022-11-15T02:08:51.199Z,7.68
2022-11-15T02:11:49.701Z,7.70
2022-11-15T02:14:51.316Z,7.84
2022-11-15T02:18:11.880Z,8.14
2022-11-15T02:21:28.211Z,8.30
2022-11-15T02:24:53.021Z,8.83
2022-11-15T02:28:18.063Z,8.89
2022-11-15T02:31:21.480Z,9.09
2022-11-15T02:34:27.210Z,9.30
2022-11-15T02:37:29.430Z,9.47
2022-11-15T02:40:36.591Z,9.52
2022-11-15T02:44:01.371Z,9.57
2022-11-15T02:47:17.074Z,9.77
2022-11-15T02:50:19.482Z,10.02
2022-11-15T02:53:18.316Z,10.02
2022-11-15T02:56:17.371Z,10.11
2022-11-15T02:59:40.324Z,10.12
2022-11-15T03:03:00.929Z,10.18
2022-11-15T03:06:06.236Z,10.15
2022-11-15T03:09:07.561Z,10.19
2022-11-15T03:12:10.605Z,10.25
2022-11-15T03:15:12.612Z,10.37
2022-11-15T03:18:15.343Z,10.36
2022-11-15T03:21:18.020Z,10.35
2022-11-15T03:24:20.873Z,10.38
2022-11-15T03:27:27.725Z,10.41
2022-11-15T03:30:26.500Z,10.49
2022-11-15T03:33:27.992Z,10.57
2022-11-15T03:36:29.016Z,10.56
2022-11-15T03:39:28.508Z,10.56
2022-11-15T03:42:32.656Z,10.58
2022-11-15T03:45:35.747Z,10.61
2022-11-15T03:48:39.898Z,10.63
2022-11-15T03:51:38.702Z,10.60
2022-11-15T03:54:49.712Z,10.62
2022-11-15T03:57:51.318Z,10.66
2022-11-15T04:00:50.185Z,10.72
2022-11-15T04:03:52.072Z,10.74
2022-11-15T04:06:52.375Z,10.79
2022-11-15T04:10:06.372Z,10.86
2022-11-15T04:13:05.431Z,10.92
2022-11-15T04:16:04.484Z,10.93
2022-11-15T04:19:42.497Z,11.00
2022-11-15T04:22:58.267Z,11.06
2022-11-15T04:25:58.573Z,11.07
2022-11-15T04:29:10.291Z,11.04
2022-11-15T04:32:10.172Z,11.02
2022-11-15T04:35:09.870Z,11.06
2022-11-15T04:38:12.313Z,11.06
2022-11-15T04:41:13.552Z,11.04
2022-11-15T04:44:12.215Z,10.95
2022-11-15T04:47:11.182Z,10.92
2022-11-15T04:50:13.557Z,10.86
2022-11-15T04:53:14.388Z,10.83
2022-11-15T04:56:15.195Z,10.86
2022-11-15T04:59:15.598Z,10.80
2022-11-15T05:02:16.332Z,10.77
2022-11-15T05:05:15.933Z,10.79
2022-11-15T05:08:34.996Z,10.77
2022-11-15T05:11:33.712Z,10.72
2022-11-15T05:14:32.736Z,10.71
2022-11-15T05:17:31.668Z,10.68
2022-11-15T05:20:32.728Z,10.68
2022-11-15T05:23:33.534Z,10.70
2022-11-15T05:26:32.029Z,10.66
2022-11-15T05:29:30.841Z,10.67
2022-11-15T05:32:30.158Z,10.65
2022-11-15T05:35:33.511Z,10.67
2022-11-15T05:38:34.943Z,10.63
2022-11-15T05:41:36.172Z,10.64
2022-11-15T05:44:36.125Z,10.63
2022-11-15T05:47:35.496Z,10.62
2022-11-15T05:50:35.648Z,10.62
2022-11-15T05:53:37.142Z,10.61
2022-11-15T05:56:36.406Z,10.58
2022-11-15T05:59:35.652Z,10.53
2022-11-15T06:02:34.459Z,10.49
2022-11-15T06:05:35.394Z,10.45
2022-11-15T06:08:33.971Z,10.41
2022-11-15T06:11:32.996Z,10.37
2022-11-15T06:14:32.067Z,10.27
2022-11-15T06:17:31.111Z,10.18
2022-11-15T06:20:31.098Z,10.27
2022-11-15T06:23:33.987Z,10.28
2022-11-15T06:27:25.583Z,10.28
2022-11-15T06:30:24.969Z,10.28
2022-11-15T06:33:24.997Z,10.31
2022-11-15T06:36:23.324Z,10.27
2022-11-15T06:39:23.881Z,10.25
2022-11-15T06:42:23.989Z,10.27
2022-11-15T06:45:23.563Z,10.25
2022-11-15T06:48:25.491Z,10.26
2022-11-15T06:51:37.688Z,10.24
2022-11-15T06:54:38.301Z,10.20
2022-11-15T06:57:35.650Z,10.18
2022-11-15T07:00:35.443Z,10.22
2022-11-15T07:03:36.177Z,10.19
2022-11-15T07:06:35.515Z,10.12
2022-11-15T07:09:50.900Z,10.12
2022-11-15T07:12:50.895Z,10.10
2022-11-15T07:15:51.719Z,10.10
2022-11-15T07:18:51.413Z,10.12
2022-11-15T07:22:02.240Z,10.13
2022-11-15T07:25:00.795Z,10.16
2022-11-15T07:28:00.709Z,10.21
2022-11-15T07:30:58.848Z,10.21
2022-11-15T07:34:00.972Z,10.26
2022-11-15T07:37:02.047Z,10.28
2022-11-15T07:40:00.620Z,10.31
2022-11-15T07:43:18.846Z,10.29
2022-11-15T07:46:17.903Z,10.30
2022-11-15T07:49:16.934Z,10.33
2022-11-15T07:52:15.944Z,10.36
2022-11-15T07:55:15.153Z,10.37
2022-11-15T07:58:15.959Z,10.38
2022-11-15T08:01:14.585Z,10.40
2022-11-15T08:04:13.582Z,10.44
2022-11-15T08:07:12.539Z,10.48
2022-11-15T08:10:37.737Z,10.58
2022-11-15T08:13:41.348Z,10.66
2022-11-15T08:16:39.940Z,10.71
2022-11-15T08:19:39.012Z,10.79
2022-11-15T08:22:40.000Z,10.91
2022-11-15T08:25:39.238Z,10.99
2022-11-15T08:28:39.784Z,11.12
2022-11-15T08:31:40.197Z,11.21
2022-11-15T08:34:37.627Z,11.24
2022-11-15T08:37:36.455Z,11.32
2022-11-15T08:40:35.205Z,11.41
2022-11-15T08:43:34.911Z,11.49
2022-11-15T08:46:33.675Z,11.60
2022-11-15T08:49:32.224Z,11.76
2022-11-15T08:52:31.250Z,11.93
2022-11-15T08:55:32.257Z,12.08
2022-11-15T08:58:31.199Z,12.25
2022-11-15T09:01:29.936Z,12.36
2022-11-15T09:04:31.219Z,12.45
2022-11-15T09:07:30.857Z,12.54
2022-11-15T09:10:32.118Z,12.61
2022-11-15T09:13:44.624Z,12.64
2022-11-15T09:16:45.074Z,12.71
2022-11-15T09:19:43.713Z,12.79
2022-11-15T09:22:44.670Z,12.81
2022-11-15T09:25:43.458Z,12.77
2022-11-15T09:28:43.113Z,12.80
2022-11-15T09:31:43.641Z,12.82
2022-11-15T09:34:41.955Z,12.86
2022-11-15T09:37:40.928Z,12.85
2022-11-15T09:40:41.964Z,12.88
2022-11-15T09:43:44.894Z,12.91
2022-11-15T09:46:52.598Z,12.96
2022-11-15T09:49:57.962Z,13.00
2022-11-15T09:52:46.974Z,13.04
2022-11-15T09:55:34.969Z,13.08
2022-11-15T09:58:20.958Z,13.11
2022-11-15T10:01:02.610Z,13.15
2022-11-15T10:03:43.494Z,13.20
2022-11-15T10:06:42.609Z,13.26
2022-11-15T10:09:26.644Z,13.21
2022-11-15T10:12:06.663Z,13.21
2022-11-15T10:14:53.205Z,13.28
2022-11-15T10:17:57.146Z,13.28
2022-11-15T10:20:49.351Z,13.32
2022-11-15T10:23:31.827Z,13.20
2022-11-15T10:26:15.705Z,13.18
2022-11-15T10:29:00.315Z,13.29
2022-11-15T10:31:42.407Z,13.30
2022-11-15T10:34:24.116Z,13.38
2022-11-15T10:37:03.880Z,13.41
2022-11-15T10:39:45.902Z,13.43
2022-11-15T10:42:30.184Z,13.46
2022-11-15T10:45:25.154Z,13.54
2022-11-15T10:48:26.222Z,13.64
2022-11-15T10:51:21.895Z,13.71
2022-11-15T10:54:04.075Z,13.84
2022-11-15T10:56:44.941Z,14.03
2022-11-15T10:59:27.795Z,14.21
2022-11-15T11:02:36.177Z,14.31
2022-11-15T11:05:41.727Z,14.45
2022-11-15T11:08:25.767Z,14.37
2022-11-15T11:11:07.971Z,14.38
2022-11-15T11:13:47.793Z,14.51
2022-11-15T11:16:44.758Z,14.60
2022-11-15T11:19:50.864Z,14.73
2022-11-15T11:22:37.207Z,14.76
2022-11-15T11:25:25.862Z,14.87
2022-11-15T11:28:19.757Z,14.85
2022-11-15T11:31:12.887Z,14.84
2022-11-15T11:34:03.457Z,15.00
2022-11-15T11:36:50.484Z,15.18
2022-11-15T11:39:39.874Z,15.14
2022-11-15T11:42:33.473Z,15.19
2022-11-15T11:45:18.377Z,15.16
2022-11-15T11:48:05.934Z,15.25
2022-11-15T11:50:46.521Z,15.37
2022-11-15T11:53:30.772Z,15.20
2022-11-15T11:56:18.680Z,15.20
2022-11-15T11:59:03.006Z,15.31
2022-11-15T12:01:46.401Z,15.11
2022-11-15T12:04:31.945Z,15.16
2022-11-15T12:07:17.474Z,15.24
2022-11-15T12:10:02.379Z,15.20
2022-11-15T12:12:47.780Z,15.43
2022-11-15T12:15:32.346Z,15.50
2022-11-15T12:18:14.893Z,15.24
2022-11-15T12:20:57.931Z,15.58
2022-11-15T12:23:43.216Z,15.66
2022-11-15T12:26:27.015Z,15.64
2022-11-15T12:29:11.604Z,15.58
2022-11-15T12:32:04.653Z,15.70
2022-11-15T12:34:46.882Z,15.82
2022-11-15T12:37:57.085Z,16.11
2022-11-15T12:40:39.035Z,16.23
2022-11-15T12:43:41.906Z,16.32
2022-11-15T12:47:01.096Z,16.35
2022-11-15T12:49:47.218Z,15.99
2022-11-15T12:52:27.995Z,16.07
2022-11-15T12:55:34.783Z,15.91
2022-11-15T12:58:41.705Z,16.30
2022-11-15T13:01:56.954Z,16.07
2022-11-15T13:04:36.861Z,16.18
2022-11-15T13:07:55.056Z,16.09
2022-11-15T13:10:48.297Z,15.88
2022-11-15T13:13:46.324Z,16.06
2022-11-15T13:16:26.647Z,16.22
2022-11-15T13:19:06.947Z,16.29
2022-11-15T13:22:08.995Z,15.92
2022-11-15T13:24:48.866Z,16.19
2022-11-15T13:27:28.907Z,16.38
2022-11-15T13:30:16.698Z,16.45
2022-11-15T13:32:56.810Z,16.10
2022-11-15T13:35:41.073Z,16.24
2022-11-15T13:38:28.579Z,16.33
2022-11-15T13:41:19.319Z,16.10
2022-11-15T13:43:59.188Z,15.81
2022-11-15T13:46:38.101Z,15.42
2022-11-15T13:49:17.281Z,15.59
2022-11-15T13:51:58.214Z,15.51
2022-11-15T13:54:45.313Z,15.32
2022-11-15T13:57:26.637Z,15.01
2022-11-15T14:00:25.056Z,15.12
2022-11-15T14:03:16.101Z,14.74
2022-11-15T14:06:08.373Z,14.61
2022-11-15T14:09:34.776Z,14.28
2022-11-15T14:12:31.721Z,14.38
2022-11-15T14:15:28.270Z,14.18
2022-11-15T14:18:39.550Z,14.28
2022-11-15T14:21:21.766Z,13.82
2022-11-15T14:24:19.593Z,13.90
2022-11-15T14:27:18.450Z,13.77
2022-11-15T14:29:56.817Z,13.77
2022-11-15T14:32:45.639Z,13.71
2022-11-15T14:35:26.080Z,13.60
2022-11-15T14:38:05.486Z,13.73
2022-11-15T14:40:44.081Z,13.65
2022-11-15T14:43:23.922Z,13.47
2022-11-15T14:46:03.338Z,13.52
2022-11-15T14:48:43.009Z,13.48
2022-11-15T14:51:23.994Z,13.36
2022-11-15T14:54:05.448Z,13.35
2022-11-15T14:56:45.754Z,13.37
2022-11-15T14:59:25.576Z,13.25
2022-11-15T15:02:04.117Z,13.11
2022-11-15T15:04:47.812Z,13.00
2022-11-15T15:07:29.321Z,12.93
2022-11-15T15:10:39.412Z,12.94
2022-11-15T15:13:24.558Z,12.84
2022-11-15T15:16:05.201Z,12.83
2022-11-15T15:18:45.579Z,12.70
2022-11-15T15:21:33.726Z,12.60
2022-11-15T15:34:41.205Z,12.26
2022-11-15T15:37:24.861Z,12.20
2022-11-15T15:40:20.896Z,12.18
2022-11-15T15:43:02.938Z,12.14
2022-11-15T15:45:43.239Z,12.14
2022-11-15T15:48:23.769Z,12.14
2022-11-15T15:51:13.013Z,12.16
2022-11-15T15:53:58.084Z,12.17
2022-11-15T15:56:37.592Z,12.15
2022-11-15T15:59:17.363Z,12.17
2022-11-15T16:01:57.163Z,12.19
2022-11-15T16:04:36.722Z,12.17
2022-11-15T16:07:24.511Z,12.18
2022-11-15T16:10:09.455Z,12.20
2022-11-15T16:12:49.732Z,12.21
2022-11-15T16:15:42.538Z,12.22
2022-11-15T16:18:35.893Z,12.23
2022-11-15T16:21:17.343Z,12.25
2022-11-15T16:23:56.839Z,12.26
2022-11-15T16:26:36.909Z,12.26
2022-11-15T16:29:17.400Z,12.28
2022-11-15T16:31:58.654Z,12.32
2022-11-15T16:34:42.741Z,12.34
2022-11-15T16:37:48.228Z,12.38
2022-11-15T16:40:30.876Z,12.42
2022-11-15T16:43:10.668Z,12.43
2022-11-15T16:45:50.590Z,12.41
2022-11-15T16:48:30.580Z,12.48
2022-11-15T16:51:12.776Z,12.53
2022-11-15T16:53:53.271Z,12.56
2022-11-15T16:56:47.873Z,12.61
2022-11-15T16:59:27.647Z,12.61
2022-11-15T17:02:12.622Z,12.59
2022-11-15T17:04:53.041Z,12.60
2022-11-15T17:07:35.175Z,12.58
2022-11-15T17:10:15.112Z,12.53
2022-11-15T17:12:56.785Z,12.56
2022-11-15T17:15:34.885Z,12.51
2022-11-15T17:18:15.409Z,12.50
2022-11-15T17:20:55.772Z,12.47
2022-11-15T17:23:36.617Z,12.38
2022-11-15T17:26:39.280Z,12.35
2022-11-15T17:29:22.209Z,12.31
2022-11-15T17:32:00.969Z,12.27
2022-11-15T17:34:46.083Z,12.19
2022-11-15T17:37:30.571Z,12.04
2022-11-15T17:40:12.737Z,11.97
2022-11-15T17:42:53.258Z,11.97
2022-11-15T17:45:37.444Z,11.91
2022-11-15T17:48:31.879Z,11.90
2022-11-15T17:51:32.627Z,11.90
2022-11-15T17:54:13.201Z,11.84
2022-11-15T17:56:56.764Z,11.77
2022-11-15T17:59:36.809Z,11.77
2022-11-15T18:02:16.695Z,11.70
2022-11-15T18:04:56.430Z,11.69
2022-11-15T18:07:36.276Z,11.63
2022-11-15T18:10:18.287Z,11.57
2022-11-15T18:12:59.877Z,11.56
2022-11-15T18:15:40.457Z,11.52
2022-11-15T18:18:23.292Z,11.52
2022-11-15T18:21:06.647Z,11.43
2022-11-15T18:24:01.247Z,11.44
2022-11-15T18:26:43.363Z,11.38
2022-11-15T18:29:26.383Z,11.38
2022-11-15T18:32:11.286Z,11.27
2022-11-15T18:34:52.031Z,11.26
2022-11-15T18:37:33.734Z,11.21
2022-11-15T18:40:14.495Z,11.18
2022-11-15T18:42:56.734Z,11.19
2022-11-15T18:45:40.029Z,11.08
2022-11-15T18:48:21.078Z,11.08
2022-11-15T18:51:43.273Z,11.08
2022-11-15T18:54:31.564Z,11.05
2022-11-15T18:57:10.339Z,11.04
2022-11-15T18:59:52.762Z,11.04
2022-11-15T19:02:32.763Z,11.02
2022-11-15T19:05:12.913Z,11.03
2022-11-15T19:07:52.355Z,11.03
2022-11-15T19:10:35.284Z,11.04
2022-11-15T19:13:16.234Z,11.00
2022-11-15T19:15:59.495Z,11.01
2022-11-15T19:18:41.959Z,11.02
2022-11-15T19:21:21.393Z,11.01
2022-11-15T19:24:03.098Z,10.98
2022-11-15T19:26:44.956Z,11.00
2022-11-15T19:29:25.191Z,11.02
2022-11-15T19:32:08.009Z,11.03
2022-11-15T19:34:48.036Z,11.03
2022-11-15T19:37:30.791Z,11.05
2022-11-15T19:40:11.967Z,11.06
2022-11-15T19:42:54.434Z,11.05
2022-11-15T19:45:35.259Z,11.02
2022-11-15T19:48:13.979Z,11.01
2022-11-15T19:50:56.300Z,11.05
2022-11-15T19:53:38.050Z,10.97
2022-11-15T19:56:19.162Z,11.01
2022-11-15T19:58:59.125Z,11.02
2022-11-15T20:01:39.384Z,11.04
2022-11-15T20:04:19.378Z,11.02
2022-11-15T20:07:02.248Z,10.97
2022-11-15T20:09:43.573Z,11.01
2022-11-15T20:12:24.919Z,11.01
2022-11-15T20:15:04.783Z,11.01
2022-11-15T20:17:50.308Z,11.01
2022-11-15T20:20:30.510Z,11.00
2022-11-15T20:23:10.224Z,11.00
2022-11-15T20:25:50.023Z,11.01
2022-11-15T20:28:29.930Z,11.01
2022-11-15T20:31:10.824Z,11.03
2022-11-15T20:33:52.668Z,11.01
2022-11-15T20:36:34.416Z,11.04
2022-11-15T20:39:13.817Z,11.04
2022-11-15T20:41:53.671Z,11.08
2022-11-15T20:44:34.510Z,11.11
2022-11-15T20:47:13.581Z,11.13
2022-11-15T20:49:55.823Z,11.07
2022-11-15T20:52:36.010Z,11.10
2022-11-15T20:55:16.072Z,11.10
2022-11-15T20:57:55.785Z,11.04
2022-11-15T21:00:36.804Z,11.09
2022-11-15T21:03:16.879Z,11.05
2022-11-15T21:05:56.662Z,11.09
2022-11-15T21:08:50.507Z,11.08
2022-11-15T21:11:49.180Z,11.08
2022-11-15T21:14:29.939Z,11.08
2022-11-15T21:17:11.780Z,11.06
2022-11-15T21:19:51.313Z,11.06
2022-11-15T21:22:30.778Z,11.11
2022-11-15T21:25:10.967Z,11.05
2022-11-15T21:27:50.343Z,11.06
2022-11-15T21:30:30.273Z,11.06
2022-11-15T21:33:09.946Z,11.07
2022-11-15T21:35:49.730Z,11.06
2022-11-15T21:38:30.776Z,11.05
2022-11-15T21:41:11.036Z,11.08
2022-11-15T21:43:50.767Z,11.08
2022-11-15T21:46:31.539Z,11.07
2022-11-15T21:49:12.022Z,11.09
2022-11-15T21:51:51.760Z,11.07
2022-11-15T21:54:31.684Z,11.09
2022-11-15T21:57:11.684Z,11.06
2022-11-15T22:00:08.658Z,11.04
2022-11-15T22:02:49.305Z,11.09
2022-11-15T22:05:32.085Z,11.08
2022-11-15T22:08:11.460Z,11.06
2022-11-15T22:10:52.560Z,11.07
2022-11-15T22:13:32.740Z,11.10
2022-11-15T22:16:12.402Z,11.09
2022-11-15T22:18:52.746Z,11.14
2022-11-15T22:21:32.210Z,11.11
2022-11-15T22:24:12.960Z,11.10
2022-11-15T22:26:54.410Z,11.14
2022-11-15T22:29:38.939Z,11.14
2022-11-15T22:32:19.363Z,11.14
2022-11-15T22:35:01.208Z,11.09
2022-11-15T22:37:42.716Z,11.12
2022-11-15T22:40:23.774Z,11.10
2022-11-15T22:43:03.666Z,11.08
2022-11-15T22:45:52.645Z,11.08
2022-11-15T22:48:34.401Z,11.08
2022-11-15T22:51:14.031Z,11.07
2022-11-15T22:53:53.984Z,11.05
2022-11-15T22:56:33.747Z,10.99
2022-11-15T22:59:13.439Z,10.98
2022-11-15T23:01:53.905Z,10.99
2022-11-15T23:04:36.964Z,10.96
2022-11-15T23:07:17.734Z,10.94
2022-11-15T23:10:16.216Z,10.89
2022-11-15T23:13:13.799Z,10.90
2022-11-15T23:16:20.028Z,10.86
2022-11-15T23:19:02.732Z,10.89
2022-11-15T23:22:01.246Z,10.83
2022-11-15T23:24:41.322Z,10.75
2022-11-15T23:27:21.198Z,10.74
2022-11-15T23:30:16.936Z,10.79
2022-11-15T23:33:15.171Z,10.76
2022-11-15T23:35:56.333Z,10.73
2022-11-15T23:38:49.008Z,10.71
2022-11-15T23:41:28.726Z,10.75
2022-11-15T23:44:08.469Z,10.75
2022-11-15T23:46:48.398Z,10.71
2022-11-15T23:49:28.214Z,10.70
2022-11-15T23:52:08.065Z,10.70
2022-11-15T23:54:49.848Z,10.70
2022-11-15T23:57:29.188Z,10.69
